sensor_id;sensor_type;location;lat;lon;timestamp;pressure;altitude;pressure_sealevel;temperature;humidity
6200;BME280;3133;43.214;27.906;2023-04-20T00:00:26;100071.13;;;10.88;100.00
6200;BME280;3133;43.214;27.906;2023-04-20T00:02:53;100052.81;;;10.93;100.00
6200;BME280;3133;43.214;27.906;2023-04-20T00:05:20;100063.84;;;11.19;100.00
6200;BME280;3133;43.214;27.906;2023-04-20T00:07:47;100062.88;;;11.30;100.00
6200;BME280;3133;43.214;27.906;2023-04-20T00:10:16;100031.66;;;11.21;100.00
6200;BME280;3133;43.214;27.906;2023-04-20T00:12:44;100062.84;;;11.33;100.00
6200;BME280;3133;43.214;27.906;2023-04-20T00:15:11;100069.88;;;11.28;100.00
6200;BME280;3133;43.214;27.906;2023-04-20T00:17:38;100063.91;;;11.13;100.00
6200;BME280;3133;43.214;27.906;2023-04-20T00:20:05;100050.09;;;11.02;100.00
6200;BME280;3133;43.214;27.906;2023-04-20T00:22:34;100058.53;;;11.28;100.00
6200;BME280;3133;43.214;27.906;2023-04-20T00:25:01;100003.34;;;10.84;100.00
6200;BME280;3133;43.214;27.906;2023-04-20T00:27:30;100068.94;;;11.35;100.00
6200;BME280;3133;43.214;27.906;2023-04-20T00:29:56;100065.56;;;11.24;100.00
6200;BME280;3133;43.214;27.906;2023-04-20T00:32:23;100066.38;;;11.29;100.00
6200;BME280;3133;43.214;27.906;2023-04-20T00:34:50;100042.19;;;11.14;100.00
6200;BME280;3133;43.214;27.906;2023-04-20T00:37:18;100057.06;;;11.06;100.00
6200;BME280;3133;43.214;27.906;2023-04-20T00:39:46;100058.72;;;11.14;100.00
6200;BME280;3133;43.214;27.906;2023-04-20T00:42:13;100055.13;;;11.24;100.00
6200;BME280;3133;43.214;27.906;2023-04-20T00:44:41;100055.03;;;11.33;100.00
6200;BME280;3133;43.214;27.906;2023-04-20T00:47:08;100050.78;;;11.22;100.00
6200;BME280;3133;43.214;27.906;2023-04-20T00:49:35;100052.56;;;11.20;100.00
6200;BME280;3133;43.214;27.906;2023-04-20T00:52:04;100016.19;;;11.02;100.00
6200;BME280;3133;43.214;27.906;2023-04-20T00:54:31;100051.63;;;11.27;100.00
6200;BME280;3133;43.214;27.906;2023-04-20T00:56:59;100043.63;;;11.42;100.00
6200;BME280;3133;43.214;27.906;2023-04-20T00:59:27;100046.28;;;11.37;100.00
6200;BME280;3133;43.214;27.906;2023-04-20T01:01:56;100041.19;;;11.27;100.00
6200;BME280;3133;43.214;27.906;2023-04-20T01:04:23;100042.03;;;11.29;100.00
6200;BME280;3133;43.214;27.906;2023-04-20T01:06:52;100011.63;;;11.23;100.00
6200;BME280;3133;43.214;27.906;2023-04-20T01:09:19;100034.91;;;11.44;100.00
6200;BME280;3133;43.214;27.906;2023-04-20T01:11:46;100002.00;;;11.28;100.00
6200;BME280;3133;43.214;27.906;2023-04-20T01:14:13;100038.34;;;11.46;100.00
6200;BME280;3133;43.214;27.906;2023-04-20T01:16:40;100013.19;;;11.39;100.00
6200;BME280;3133;43.214;27.906;2023-04-20T01:19:10;99989.00;;;11.24;100.00
6200;BME280;3133;43.214;27.906;2023-04-20T01:21:37;99982.19;;;11.11;100.00
6200;BME280;3133;43.214;27.906;2023-04-20T01:24:06;100040.03;;;11.50;100.00
6200;BME280;3133;43.214;27.906;2023-04-20T01:26:33;100043.50;;;11.51;100.00
6200;BME280;3133;43.214;27.906;2023-04-20T01:29:00;100042.56;;;11.60;100.00
6200;BME280;3133;43.214;27.906;2023-04-20T01:31:27;100006.31;;;11.31;100.00
6200;BME280;3133;43.214;27.906;2023-04-20T01:33:54;100046.22;;;11.43;100.00
6200;BME280;3133;43.214;27.906;2023-04-20T01:36:20;100044.66;;;11.27;100.00
6200;BME280;3133;43.214;27.906;2023-04-20T01:38:47;100027.22;;;11.29;100.00
6200;BME280;3133;43.214;27.906;2023-04-20T01:41:16;100040.09;;;11.46;100.00
6200;BME280;3133;43.214;27.906;2023-04-20T01:43:43;100044.47;;;11.44;100.00
6200;BME280;3133;43.214;27.906;2023-04-20T01:46:09;100038.38;;;11.43;100.00
6200;BME280;3133;43.214;27.906;2023-04-20T01:48:36;99969.34;;;10.93;100.00
6200;BME280;3133;43.214;27.906;2023-04-20T01:51:03;100035.91;;;11.31;100.00
6200;BME280;3133;43.214;27.906;2023-04-20T01:53:30;100038.69;;;11.16;100.00
6200;BME280;3133;43.214;27.906;2023-04-20T01:55:57;99902.84;;;10.51;100.00
6200;BME280;3133;43.214;27.906;2023-04-20T01:58:25;100044.66;;;11.27;100.00
6200;BME280;3133;43.214;27.906;2023-04-20T02:00:53;100038.44;;;11.37;100.00
6200;BME280;3133;43.214;27.906;2023-04-20T02:03:20;100043.84;;;11.19;100.00
6200;BME280;3133;43.214;27.906;2023-04-20T02:05:46;100041.06;;;11.34;100.00
6200;BME280;3133;43.214;27.906;2023-04-20T02:08:13;99975.47;;;10.90;100.00
6200;BME280;3133;43.214;27.906;2023-04-20T02:10:40;100001.41;;;11.02;100.00
6200;BME280;3133;43.214;27.906;2023-04-20T02:13:07;100053.59;;;11.02;100.00
6200;BME280;3133;43.214;27.906;2023-04-20T02:15:35;100002.41;;;10.91;100.00
6200;BME280;3133;43.214;27.906;2023-04-20T02:18:02;99960.94;;;10.65;100.00
6200;BME280;3133;43.214;27.906;2023-04-20T02:20:29;100029.19;;;11.06;100.00
6200;BME280;3133;43.214;27.906;2023-04-20T02:22:56;100049.81;;;11.30;100.00
6200;BME280;3133;43.214;27.906;2023-04-20T02:25:23;100029.00;;;11.27;100.00
6200;BME280;3133;43.214;27.906;2023-04-20T02:27:50;100043.66;;;11.37;100.00
6200;BME280;3133;43.214;27.906;2023-04-20T02:30:17;100020.38;;;11.19;100.00
6200;BME280;3133;43.214;27.906;2023-04-20T02:32:45;100043.81;;;11.24;100.00
6200;BME280;3133;43.214;27.906;2023-04-20T02:35:12;100023.31;;;10.88;100.00
6200;BME280;3133;43.214;27.906;2023-04-20T02:37:39;100038.69;;;11.16;100.00
6200;BME280;3133;43.214;27.906;2023-04-20T02:40:07;100039.53;;;11.18;100.00
6200;BME280;3133;43.214;27.906;2023-04-20T02:42:34;100018.06;;;10.91;100.00
6200;BME280;3133;43.214;27.906;2023-04-20T02:45:01;99980.81;;;10.76;100.00
6200;BME280;3133;43.214;27.906;2023-04-20T02:47:28;100032.59;;;11.16;100.00
6200;BME280;3133;43.214;27.906;2023-04-20T02:49:56;100009.97;;;11.15;100.00
6200;BME280;3133;43.214;27.906;2023-04-20T02:52:23;100005.66;;;11.11;100.00
6200;BME280;3133;43.214;27.906;2023-04-20T02:54:51;100011.78;;;11.08;100.00
6200;BME280;3133;43.214;27.906;2023-04-20T02:57:18;100003.97;;;11.07;100.00
6200;BME280;3133;43.214;27.906;2023-04-20T02:59:45;99964.41;;;10.67;100.00
6200;BME280;3133;43.214;27.906;2023-04-20T03:02:12;100022.53;;;10.76;100.00
6200;BME280;3133;43.214;27.906;2023-04-20T03:04:38;100026.84;;;10.80;100.00
6200;BME280;3133;43.214;27.906;2023-04-20T03:07:08;100025.06;;;10.86;100.00
6200;BME280;3133;43.214;27.906;2023-04-20T03:09:35;100008.78;;;10.59;100.00
6200;BME280;3133;43.214;27.906;2023-04-20T03:12:02;100023.44;;;10.75;100.00
6200;BME280;3133;43.214;27.906;2023-04-20T03:14:29;100006.00;;;10.76;100.00
6200;BME280;3133;43.214;27.906;2023-04-20T03:16:56;100022.44;;;10.86;100.00
6200;BME280;3133;43.214;27.906;2023-04-20T03:19:23;100021.69;;;10.74;100.00
6200;BME280;3133;43.214;27.906;2023-04-20T03:21:50;99954.19;;;10.43;100.00
6200;BME280;3133;43.214;27.906;2023-04-20T03:24:18;99931.56;;;10.46;100.00
6200;BME280;3133;43.214;27.906;2023-04-20T03:26:46;99986.84;;;10.82;100.00
6200;BME280;3133;43.214;27.906;2023-04-20T03:29:13;100024.09;;;10.94;100.00
6200;BME280;3133;43.214;27.906;2023-04-20T03:31:40;100024.13;;;10.91;100.00
6200;BME280;3133;43.214;27.906;2023-04-20T03:34:07;100023.16;;;11.00;100.00
6200;BME280;3133;43.214;27.906;2023-04-20T03:36:35;99989.38;;;10.91;100.00
6200;BME280;3133;43.214;27.906;2023-04-20T03:39:03;100013.38;;;11.21;100.00
6200;BME280;3133;43.214;27.906;2023-04-20T03:41:31;100015.88;;;11.33;100.00
6200;BME280;3133;43.214;27.906;2023-04-20T03:43:58;99979.63;;;11.06;100.00
6200;BME280;3133;43.214;27.906;2023-04-20T03:46:25;99960.69;;;10.88;100.00
6200;BME280;3133;43.214;27.906;2023-04-20T03:48:52;100023.88;;;11.18;100.00
6200;BME280;3133;43.214;27.906;2023-04-20T03:51:19;100000.66;;;10.91;100.00
6200;BME280;3133;43.214;27.906;2023-04-20T03:53:46;100030.13;;;11.04;100.00
6200;BME280;3133;43.214;27.906;2023-04-20T03:56:13;100026.59;;;11.08;100.00
6200;BME280;3133;43.214;27.906;2023-04-20T03:58:41;100008.22;;;11.18;100.00
6200;BME280;3133;43.214;27.906;2023-04-20T04:01:09;99976.22;;;11.00;100.00
6200;BME280;3133;43.214;27.906;2023-04-20T04:03:37;100004.56;;;11.33;100.00
6200;BME280;3133;43.214;27.906;2023-04-20T04:06:05;100031.50;;;11.35;100.00
6200;BME280;3133;43.214;27.906;2023-04-20T04:08:32;99930.31;;;10.84;100.00
6200;BME280;3133;43.214;27.906;2023-04-20T04:10:59;99899.00;;;10.85;100.00
6200;BME280;3133;43.214;27.906;2023-04-20T04:13:26;100030.09;;;11.81;100.00
6200;BME280;3133;43.214;27.906;2023-04-20T04:15:54;100028.34;;;11.82;100.00
6200;BME280;3133;43.214;27.906;2023-04-20T04:18:21;100023.03;;;11.89;100.00
6200;BME280;3133;43.214;27.906;2023-04-20T04:20:48;100005.63;;;11.88;100.00
6200;BME280;3133;43.214;27.906;2023-04-20T04:23:18;100033.22;;;12.09;100.00
6200;BME280;3133;43.214;27.906;2023-04-20T04:25:46;100009.63;;;12.12;100.00
6200;BME280;3133;43.214;27.906;2023-04-20T04:28:13;100033.78;;;12.29;100.00
6200;BME280;3133;43.214;27.906;2023-04-20T04:30:41;100033.06;;;12.19;100.00
6200;BME280;3133;43.214;27.906;2023-04-20T04:33:10;100036.81;;;11.99;100.00
6200;BME280;3133;43.214;27.906;2023-04-20T04:35:39;100047.22;;;12.03;100.00
6200;BME280;3133;43.214;27.906;2023-04-20T04:38:06;100039.13;;;12.21;100.00
6200;BME280;3133;43.214;27.906;2023-04-20T04:40:33;100020.06;;;12.13;100.00
6200;BME280;3133;43.214;27.906;2023-04-20T04:43:00;99901.03;;;11.32;100.00
6200;BME280;3133;43.214;27.906;2023-04-20T04:45:29;100046.47;;;11.95;100.00
6200;BME280;3133;43.214;27.906;2023-04-20T04:48:01;100015.97;;;11.94;100.00
6200;BME280;3133;43.214;27.906;2023-04-20T04:50:30;100008.75;;;12.14;100.00
6200;BME280;3133;43.214;27.906;2023-04-20T04:52:57;100052.81;;;12.37;100.00
6200;BME280;3133;43.214;27.906;2023-04-20T04:55:24;100044.22;;;12.30;100.00
6200;BME280;3133;43.214;27.906;2023-04-20T04:58:02;100028.63;;;12.26;100.00
6200;BME280;3133;43.214;27.906;2023-04-20T05:00:58;100056.38;;;12.35;100.00
6200;BME280;3133;43.214;27.906;2023-04-20T05:03:31;100052.16;;;12.24;100.00
6200;BME280;3133;43.214;27.906;2023-04-20T05:06:52;100056.44;;;12.30;100.00
6200;BME280;3133;43.214;27.906;2023-04-20T05:09:40;100059.22;;;12.19;100.00
6200;BME280;3133;43.214;27.906;2023-04-20T05:12:43;100049.75;;;12.11;100.00
6200;BME280;3133;43.214;27.906;2023-04-20T05:15:23;100069.78;;;12.10;100.00
6200;BME280;3133;43.214;27.906;2023-04-20T05:17:51;99949.97;;;11.15;100.00
6200;BME280;3133;43.214;27.906;2023-04-20T05:20:20;100044.28;;;11.59;100.00
6200;BME280;3133;43.214;27.906;2023-04-20T05:22:55;100066.91;;;11.62;100.00
6200;BME280;3133;43.214;27.906;2023-04-20T05:25:34;100068.53;;;11.72;100.00
6200;BME280;3133;43.214;27.906;2023-04-20T05:28:15;99880.91;;;10.70;100.00
6200;BME280;3133;43.214;27.906;2023-04-20T05:30:49;100039.06;;;11.57;100.00
6200;BME280;3133;43.214;27.906;2023-04-20T05:33:38;100072.72;;;11.86;100.00
6200;BME280;3133;43.214;27.906;2023-04-20T05:36:09;100054.44;;;11.85;100.00
6200;BME280;3133;43.214;27.906;2023-04-20T05:38:37;99999.03;;;11.58;100.00
6200;BME280;3133;43.214;27.906;2023-04-20T05:41:04;100064.00;;;11.87;100.00
6200;BME280;3133;43.214;27.906;2023-04-20T05:43:31;100032.78;;;11.75;100.00
6200;BME280;3133;43.214;27.906;2023-04-20T05:45:58;100043.06;;;11.89;100.00
6200;BME280;3133;43.214;27.906;2023-04-20T05:48:25;100064.78;;;11.92;100.00
6200;BME280;3133;43.214;27.906;2023-04-20T05:50:52;100070.88;;;11.93;100.00
6200;BME280;3133;43.214;27.906;2023-04-20T05:53:35;100072.63;;;11.94;100.00
6200;BME280;3133;43.214;27.906;2023-04-20T05:56:17;100074.31;;;11.98;100.00
6200;BME280;3133;43.214;27.906;2023-04-20T05:58:44;100052.63;;;11.90;100.00
6200;BME280;3133;43.214;27.906;2023-04-20T06:01:11;100075.28;;;11.88;100.00
6200;BME280;3133;43.214;27.906;2023-04-20T06:03:38;100070.81;;;12.00;100.00
6200;BME280;3133;43.214;27.906;2023-04-20T06:06:05;99970.47;;;11.45;100.00
6200;BME280;3133;43.214;27.906;2023-04-20T06:08:32;100073.28;;;12.11;100.00
6200;BME280;3133;43.214;27.906;2023-04-20T06:10:59;100070.59;;;12.14;100.00
6200;BME280;3133;43.214;27.906;2023-04-20T06:13:27;99945.41;;;11.33;100.00
6200;BME280;3133;43.214;27.906;2023-04-20T06:15:54;100070.53;;;12.18;100.00
6200;BME280;3133;43.214;27.906;2023-04-20T06:18:21;100073.13;;;12.21;100.00
6200;BME280;3133;43.214;27.906;2023-04-20T06:20:49;100074.91;;;12.19;100.00
6200;BME280;3133;43.214;27.906;2023-04-20T06:23:17;100067.75;;;12.29;100.00
6200;BME280;3133;43.214;27.906;2023-04-20T06:25:43;100066.00;;;12.31;100.00
6200;BME280;3133;43.214;27.906;2023-04-20T06:28:11;100069.25;;;12.47;100.00
6200;BME280;3133;43.214;27.906;2023-04-20T06:30:39;100066.63;;;12.47;100.00
6200;BME280;3133;43.214;27.906;2023-04-20T06:33:06;100045.91;;;12.33;100.00
6200;BME280;3133;43.214;27.906;2023-04-20T06:35:33;100075.34;;;12.47;100.00
6200;BME280;3133;43.214;27.906;2023-04-20T06:38:00;100013.06;;;12.17;100.00
6200;BME280;3133;43.214;27.906;2023-04-20T06:40:27;100073.38;;;12.61;100.00
6200;BME280;3133;43.214;27.906;2023-04-20T06:42:54;100071.75;;;12.54;100.00
6200;BME280;3133;43.214;27.906;2023-04-20T06:45:21;100064.91;;;12.46;100.00
6200;BME280;3133;43.214;27.906;2023-04-20T06:47:49;100056.91;;;12.56;100.00
6200;BME280;3133;43.214;27.906;2023-04-20T06:50:17;100060.97;;;12.74;100.00
6200;BME280;3133;43.214;27.906;2023-04-20T06:52:44;100061.59;;;12.89;100.00
6200;BME280;3133;43.214;27.906;2023-04-20T06:55:12;100065.69;;;13.04;100.00
6200;BME280;3133;43.214;27.906;2023-04-20T06:57:39;100048.28;;;13.04;100.00
6200;BME280;3133;43.214;27.906;2023-04-20T07:00:09;100070.50;;;13.30;100.00
6200;BME280;3133;43.214;27.906;2023-04-20T07:02:42;100036.81;;;13.12;100.00
6200;BME280;3133;43.214;27.906;2023-04-20T07:05:11;100002.56;;;12.73;100.00
6200;BME280;3133;43.214;27.906;2023-04-20T07:07:38;99962.69;;;12.59;100.00
6200;BME280;3133;43.214;27.906;2023-04-20T07:10:06;100040.53;;;12.97;100.00
6200;BME280;3133;43.214;27.906;2023-04-20T07:12:34;100060.47;;;13.05;100.00
6200;BME280;3133;43.214;27.906;2023-04-20T07:15:02;100086.84;;;12.92;100.00
6200;BME280;3133;43.214;27.906;2023-04-20T07:17:30;100088.63;;;12.90;100.00
6200;BME280;3133;43.214;27.906;2023-04-20T07:19:57;100084.38;;;12.83;100.00
6200;BME280;3133;43.214;27.906;2023-04-20T07:22:32;100040.16;;;12.68;100.00
6200;BME280;3133;43.214;27.906;2023-04-20T07:24:59;100074.56;;;12.97;100.00
6200;BME280;3133;43.214;27.906;2023-04-20T07:27:29;100009.66;;;12.65;100.00
6200;BME280;3133;43.214;27.906;2023-04-20T07:29:58;100022.66;;;12.70;100.00
6200;BME280;3133;43.214;27.906;2023-04-20T07:32:24;100087.53;;;13.03;100.00
6200;BME280;3133;43.214;27.906;2023-04-20T07:34:51;99989.75;;;12.58;100.00
6200;BME280;3133;43.214;27.906;2023-04-20T07:37:18;99954.88;;;12.58;100.00
6200;BME280;3133;43.214;27.906;2023-04-20T07:39:47;100081.88;;;13.29;100.00
6200;BME280;3133;43.214;27.906;2023-04-20T07:42:14;100076.78;;;13.20;100.00
6200;BME280;3133;43.214;27.906;2023-04-20T07:44:41;100036.84;;;13.08;100.00
6200;BME280;3133;43.214;27.906;2023-04-20T07:47:08;100051.44;;;13.22;100.00
6200;BME280;3133;43.214;27.906;2023-04-20T07:49:35;100087.28;;;13.65;100.00
6200;BME280;3133;43.214;27.906;2023-04-20T07:52:03;100087.13;;;13.73;100.00
6200;BME280;3133;43.214;27.906;2023-04-20T07:54:32;100042.88;;;13.58;100.00
6200;BME280;3133;43.214;27.906;2023-04-20T07:57:00;100088.38;;;13.97;100.00
6200;BME280;3133;43.214;27.906;2023-04-20T07:59:27;100018.09;;;13.74;100.00
6200;BME280;3133;43.214;27.906;2023-04-20T08:01:57;100104.53;;;14.18;100.00
6200;BME280;3133;43.214;27.906;2023-04-20T08:04:25;100036.03;;;13.92;100.00
6200;BME280;3133;43.214;27.906;2023-04-20T08:06:52;100102.69;;;14.23;100.00
6200;BME280;3133;43.214;27.906;2023-04-20T08:09:19;100081.94;;;14.11;100.00
6200;BME280;3133;43.214;27.906;2023-04-20T08:11:46;100067.53;;;13.91;100.00
6200;BME280;3133;43.214;27.906;2023-04-20T08:14:19;100100.22;;;14.16;100.00
6200;BME280;3133;43.214;27.906;2023-04-20T08:16:49;100101.03;;;14.19;100.00
6200;BME280;3133;43.214;27.906;2023-04-20T08:19:16;100090.97;;;14.39;100.00
6200;BME280;3133;43.214;27.906;2023-04-20T08:21:43;100051.53;;;14.44;100.00
6200;BME280;3133;43.214;27.906;2023-04-20T08:24:11;100022.88;;;14.35;100.00
6200;BME280;3133;43.214;27.906;2023-04-20T08:26:38;100104.16;;;14.73;100.00
6200;BME280;3133;43.214;27.906;2023-04-20T08:29:05;100094.69;;;14.68;100.00
6200;BME280;3133;43.214;27.906;2023-04-20T08:31:34;100108.78;;;14.64;100.00
6200;BME280;3133;43.214;27.906;2023-04-20T08:34:01;100099.94;;;14.29;100.00
6200;BME280;3133;43.214;27.906;2023-04-20T08:36:28;100067.78;;;14.20;100.00
6200;BME280;3133;43.214;27.906;2023-04-20T08:39:03;100097.84;;;14.45;100.00
6200;BME280;3133;43.214;27.906;2023-04-20T08:41:31;99972.88;;;14.04;100.00
6200;BME280;3133;43.214;27.906;2023-04-20T08:43:58;100092.22;;;14.97;100.00
6200;BME280;3133;43.214;27.906;2023-04-20T08:46:25;100104.69;;;14.89;100.00
6200;BME280;3133;43.214;27.906;2023-04-20T08:48:54;100100.56;;;14.79;100.00
6200;BME280;3133;43.214;27.906;2023-04-20T08:51:22;100073.34;;;14.46;100.00
6200;BME280;3133;43.214;27.906;2023-04-20T08:53:49;100103.78;;;14.53;100.00
6200;BME280;3133;43.214;27.906;2023-04-20T08:56:19;100094.19;;;14.52;100.00
6200;BME280;3133;43.214;27.906;2023-04-20T08:58:46;100099.69;;;14.78;100.00
6200;BME280;3133;43.214;27.906;2023-04-20T09:01:13;100097.66;;;14.89;100.00
6200;BME280;3133;43.214;27.906;2023-04-20T09:03:40;100076.59;;;14.92;100.00
6200;BME280;3133;43.214;27.906;2023-04-20T09:06:15;100083.22;;;15.07;100.00
6200;BME280;3133;43.214;27.906;2023-04-20T09:08:44;100087.56;;;15.08;100.00
6200;BME280;3133;43.214;27.906;2023-04-20T09:11:21;100098.53;;;14.90;100.00
6200;BME280;3133;43.214;27.906;2023-04-20T09:13:59;100008.53;;;14.11;100.00
6200;BME280;3133;43.214;27.906;2023-04-20T09:16:26;100090.03;;;14.42;100.00
6200;BME280;3133;43.214;27.906;2023-04-20T09:18:53;100098.66;;;14.48;100.00
6200;BME280;3133;43.214;27.906;2023-04-20T09:21:23;100090.84;;;14.45;100.00
6200;BME280;3133;43.214;27.906;2023-04-20T09:23:58;100102.50;;;14.32;100.00
6200;BME280;3133;43.214;27.906;2023-04-20T09:26:25;100030.66;;;13.98;100.00
6200;BME280;3133;43.214;27.906;2023-04-20T09:28:52;100095.78;;;14.59;100.00
6200;BME280;3133;43.214;27.906;2023-04-20T09:31:20;100109.25;;;14.81;100.00
6200;BME280;3133;43.214;27.906;2023-04-20T09:33:58;100094.72;;;15.01;100.00
6200;BME280;3133;43.214;27.906;2023-04-20T09:36:37;100061.69;;;14.93;100.00
6200;BME280;3133;43.214;27.906;2023-04-20T09:39:06;100104.84;;;15.18;100.00
6200;BME280;3133;43.214;27.906;2023-04-20T09:41:34;100086.44;;;15.18;100.00
6200;BME280;3133;43.214;27.906;2023-04-20T09:44:01;100101.81;;;15.33;100.00
6200;BME280;3133;43.214;27.906;2023-04-20T09:46:30;100099.91;;;15.04;100.00
6200;BME280;3133;43.214;27.906;2023-04-20T09:49:00;100046.69;;;14.98;100.00
6200;BME280;3133;43.214;27.906;2023-04-20T09:51:29;100049.25;;;15.01;100.00
6200;BME280;3133;43.214;27.906;2023-04-20T09:53:58;100087.59;;;15.06;100.00
6200;BME280;3133;43.214;27.906;2023-04-20T09:56:27;100063.25;;;14.65;100.00
6200;BME280;3133;43.214;27.906;2023-04-20T09:58:55;100112.00;;;14.76;100.00
6200;BME280;3133;43.214;27.906;2023-04-20T10:01:24;100010.38;;;13.66;100.00
6200;BME280;3133;43.214;27.906;2023-04-20T10:03:52;100117.09;;;14.44;100.00
6200;BME280;3133;43.214;27.906;2023-04-20T10:06:21;100076.97;;;14.40;100.00
6200;BME280;3133;43.214;27.906;2023-04-20T10:08:48;100075.72;;;14.56;100.00
6200;BME280;3133;43.214;27.906;2023-04-20T10:11:31;100104.13;;;14.76;100.00
6200;BME280;3133;43.214;27.906;2023-04-20T10:14:01;100048.44;;;14.25;100.00
6200;BME280;3133;43.214;27.906;2023-04-20T10:16:40;100038.72;;;14.30;100.00
6200;BME280;3133;43.214;27.906;2023-04-20T10:19:07;100070.06;;;14.36;100.00
6200;BME280;3133;43.214;27.906;2023-04-20T10:21:45;99997.69;;;14.26;100.00
6200;BME280;3133;43.214;27.906;2023-04-20T10:24:12;100043.69;;;14.78;100.00
6200;BME280;3133;43.214;27.906;2023-04-20T10:26:56;100072.91;;;14.99;100.00
6200;BME280;3133;43.214;27.906;2023-04-20T10:29:23;100070.16;;;15.04;100.00
6200;BME280;3133;43.214;27.906;2023-04-20T10:31:51;100107.13;;;15.30;100.00
6200;BME280;3133;43.214;27.906;2023-04-20T10:34:29;100103.63;;;15.29;100.00
6200;BME280;3133;43.214;27.906;2023-04-20T10:37:06;99998.75;;;14.56;100.00
6200;BME280;3133;43.214;27.906;2023-04-20T10:39:35;100006.16;;;14.40;100.00
6200;BME280;3133;43.214;27.906;2023-04-20T10:42:05;100130.56;;;15.04;100.00
6200;BME280;3133;43.214;27.906;2023-04-20T10:44:32;100128.16;;;14.95;100.00
6200;BME280;3133;43.214;27.906;2023-04-20T10:47:01;100124.53;;;15.00;100.00
6200;BME280;3133;43.214;27.906;2023-04-20T10:49:29;100035.19;;;14.68;100.00
6200;BME280;3133;43.214;27.906;2023-04-20T10:52:04;100119.16;;;15.38;100.00
6200;BME280;3133;43.214;27.906;2023-04-20T10:54:36;100112.78;;;15.49;100.00
6200;BME280;3133;43.214;27.906;2023-04-20T10:57:19;99990.91;;;14.90;100.00
6200;BME280;3133;43.214;27.906;2023-04-20T11:00:14;100121.38;;;15.55;100.00
6200;BME280;3133;43.214;27.906;2023-04-20T11:02:45;100075.34;;;15.07;100.00
6200;BME280;3133;43.214;27.906;2023-04-20T11:05:13;100070.47;;;15.25;100.00
6200;BME280;3133;43.214;27.906;2023-04-20T11:07:46;100029.63;;;14.80;100.00
6200;BME280;3133;43.214;27.906;2023-04-20T11:10:14;100046.16;;;14.48;100.00
6200;BME280;3133;43.214;27.906;2023-04-20T11:12:43;100109.03;;;14.90;100.00
6200;BME280;3133;43.214;27.906;2023-04-20T11:15:10;100117.66;;;14.95;100.00
6200;BME280;3133;43.214;27.906;2023-04-20T11:17:38;100112.34;;;14.98;100.00
6200;BME280;3133;43.214;27.906;2023-04-20T11:20:08;100025.69;;;14.64;100.00
6200;BME280;3133;43.214;27.906;2023-04-20T11:22:36;99867.16;;;13.67;100.00
6200;BME280;3133;43.214;27.906;2023-04-20T11:25:05;100081.91;;;14.89;100.00
6200;BME280;3133;43.214;27.906;2023-04-20T11:27:32;100116.09;;;14.88;100.00
6200;BME280;3133;43.214;27.906;2023-04-20T11:30:02;100115.75;;;15.01;100.00
6200;BME280;3133;43.214;27.906;2023-04-20T11:32:30;99996.72;;;14.32;100.00
6200;BME280;3133;43.214;27.906;2023-04-20T11:34:58;99994.19;;;14.64;100.00
6200;BME280;3133;43.214;27.906;2023-04-20T11:37:27;99985.53;;;14.93;100.00
6200;BME280;3133;43.214;27.906;2023-04-20T11:40:02;100104.47;;;15.65;100.00
6200;BME280;3133;43.214;27.906;2023-04-20T11:42:32;100057.44;;;15.22;100.00
6200;BME280;3133;43.214;27.906;2023-04-20T11:44:59;100052.72;;;15.35;100.00
6200;BME280;3133;43.214;27.906;2023-04-20T11:47:27;100104.13;;;15.77;100.00
6200;BME280;3133;43.214;27.906;2023-04-20T11:49:54;100108.03;;;15.93;100.00
6200;BME280;3133;43.214;27.906;2023-04-20T11:52:21;100097.13;;;15.78;100.00
6200;BME280;3133;43.214;27.906;2023-04-20T11:54:48;100042.47;;;15.58;100.00
6200;BME280;3133;43.214;27.906;2023-04-20T11:57:15;100085.09;;;15.69;100.00
6200;BME280;3133;43.214;27.906;2023-04-20T11:59:42;100002.06;;;15.30;100.00
6200;BME280;3133;43.214;27.906;2023-04-20T12:02:12;100006.00;;;15.14;100.00
6200;BME280;3133;43.214;27.906;2023-04-20T12:04:41;100102.97;;;15.55;100.00
6200;BME280;3133;43.214;27.906;2023-04-20T12:07:08;100053.66;;;15.32;100.00
6200;BME280;3133;43.214;27.906;2023-04-20T12:09:35;100098.19;;;15.71;100.00
6200;BME280;3133;43.214;27.906;2023-04-20T12:12:10;100053.72;;;15.63;100.00
6200;BME280;3133;43.214;27.906;2023-04-20T12:14:37;100081.75;;;15.63;100.00
6200;BME280;3133;43.214;27.906;2023-04-20T12:17:03;100109.19;;;15.53;100.00
6200;BME280;3133;43.214;27.906;2023-04-20T12:19:32;100064.34;;;15.25;100.00
6200;BME280;3133;43.214;27.906;2023-04-20T12:22:00;100015.22;;;14.96;100.00
6200;BME280;3133;43.214;27.906;2023-04-20T12:24:27;100103.69;;;15.62;100.00
6200;BME280;3133;43.214;27.906;2023-04-20T12:26:54;100111.97;;;15.48;100.00
6200;BME280;3133;43.214;27.906;2023-04-20T12:29:22;100112.50;;;15.59;100.00
6200;BME280;3133;43.214;27.906;2023-04-20T12:31:49;100015.03;;;14.70;100.00
6200;BME280;3133;43.214;27.906;2023-04-20T12:34:16;100054.13;;;14.81;100.00
6200;BME280;3133;43.214;27.906;2023-04-20T12:36:43;100050.19;;;14.97;100.00
6200;BME280;3133;43.214;27.906;2023-04-20T12:39:11;100104.28;;;15.39;100.00
6200;BME280;3133;43.214;27.906;2023-04-20T12:41:40;100059.47;;;15.11;100.00
6200;BME280;3133;43.214;27.906;2023-04-20T12:44:07;100095.97;;;15.56;100.00
6200;BME280;3133;43.214;27.906;2023-04-20T12:46:35;100101.75;;;15.68;100.00
6200;BME280;3133;43.214;27.906;2023-04-20T12:49:01;100096.31;;;15.44;100.00
6200;BME280;3133;43.214;27.906;2023-04-20T12:51:29;99968.28;;;14.84;100.00
6200;BME280;3133;43.214;27.906;2023-04-20T12:53:56;100083.69;;;15.56;100.00
6200;BME280;3133;43.214;27.906;2023-04-20T12:56:24;100095.25;;;15.81;100.00
6200;BME280;3133;43.214;27.906;2023-04-20T12:58:52;100067.25;;;15.80;100.00